TimeMDT,TemperatureF,Dew PointF,Humidity,Sea Level PressureIn,VisibilityMPH,Wind Direction,Wind SpeedMPH,Gust SpeedMPH,PrecipitationIn,Events,Conditions,WindDirDegrees,DateUTC
12:56 AM,33.1,30.0,89,29.88,-9999.0,Calm,Calm,-,N/A,,Unknown,0,2013-05-22 06:56:00
1:56 AM,30.9,28.9,92,29.87,-9999.0,NW,3.5,-,N/A,,Unknown,310,2013-05-22 07:56:00
2:56 AM,30.0,28.0,92,29.85,-9999.0,Calm,Calm,-,N/A,,Unknown,0,2013-05-22 08:56:00
3:56 AM,30.9,28.9,92,29.84,-9999.0,WNW,3.5,-,N/A,,Unknown,300,2013-05-22 09:56:00
4:56 AM,32.0,30.0,92,29.84,-9999.0,Calm,Calm,-,N/A,,Unknown,0,2013-05-22 10:56:00
5:56 AM,30.0,28.0,92,29.83,-9999.0,Calm,Calm,-,N/A,,Unknown,0,2013-05-22 11:56:00
6:56 AM,32.0,30.0,92,29.83,-9999.0,Calm,Calm,-,N/A,,Unknown,0,2013-05-22 12:56:00
7:56 AM,43.0,32.0,65,29.79,-9999.0,Calm,Calm,-,N/A,,Unknown,0,2013-05-22 13:56:00
8:56 AM,48.9,30.9,50,29.78,-9999.0,East,3.5,-,N/A,,Unknown,90,2013-05-22 14:56:00
9:56 AM,53.1,30.0,41,29.76,-9999.0,ENE,3.5,-,N/A,,Unknown,70,2013-05-22 15:56:00
10:56 AM,53.1,30.0,41,29.75,-9999.0,East,3.5,-,N/A,,Unknown,100,2013-05-22 16:56:00
11:56 AM,55.0,30.0,38,29.74,-9999.0,ESE,5.8,-,N/A,,Unknown,110,2013-05-22 17:56:00
12:56 PM,55.0,32.0,42,29.75,-9999.0,Variable,5.8,-,N/A,,Unknown,0,2013-05-22 18:56:00
1:56 PM,57.0,35.1,44,29.74,-9999.0,Variable,4.6,-,N/A,,Unknown,0,2013-05-22 19:56:00
2:56 PM,53.1,33.1,47,29.76,-9999.0,Calm,Calm,-,N/A,,Unknown,0,2013-05-22 20:56:00
3:56 PM,43.0,37.9,82,29.88,-9999.0,Variable,5.8,18.4,0.06,,Unknown,0,2013-05-22 21:56:00
4:56 PM,46.9,39.9,77,29.83,-9999.0,Calm,Calm,-,0.02,,Unknown,0,2013-05-22 22:56:00
5:56 PM,44.1,42.1,93,29.88,-9999.0,Variable,3.5,-,0.06,,Unknown,0,2013-05-22 23:56:00
6:56 PM,44.1,41.0,89,29.86,-9999.0,Calm,Calm,-,N/A,,Unknown,0,2013-05-23 00:56:00
7:56 PM,44.1,41.0,89,29.80,-9999.0,Calm,Calm,-,N/A,,Unknown,0,2013-05-23 01:56:00
8:56 PM,44.1,39.9,85,29.76,-9999.0,Variable,3.5,-,N/A,,Unknown,0,2013-05-23 02:56:00
9:56 PM,42.1,39.0,89,29.76,-9999.0,Calm,Calm,-,N/A,,Unknown,0,2013-05-23 03:56:00
10:56 PM,41.0,37.9,89,29.78,-9999.0,Calm,Calm,-,N/A,,Unknown,0,2013-05-23 04:56:00
11:56 PM,37.9,37.0,97,29.78,-9999.0,Calm,Calm,-,0.01,,Unknown,0,2013-05-23 05:56:00